Time;durP1;ratioP1;P1;durP2;ratioP2;P2;SDS_P1;SDS_P2;PMS_P1;PMS_P2;Temp;Humidity;BMP_temperature;BMP_pressure;BME280_temperature;BME280_humidity;BME280_pressure;Samples;Min_cycle;Max_cycle;Signal;HPM_P1;HPM_P2
2022/10/21 00:02:20;;;;;;;98.43;46.63;;;;;;;;;;5067778;28;20043;-71
2022/10/21 00:04:46;;;;;;;92.82;46.13;;;;;;;;;;5065312;28;20085;-70
2022/10/21 00:07:12;;;;;;;93.93;46.10;;;;;;;;;;5069826;28;20024;-71
2022/10/21 00:09:38;;;;;;;92.97;46.10;;;;;;;;;;5068486;28;20040;-71
2022/10/21 00:12:04;;;;;;;83.03;44.65;;;;;;;;;;5070841;28;20693;-71
2022/10/21 00:14:30;;;;;;;87.78;46.08;;;;;;;;;;5052734;28;20320;-71
2022/10/21 00:16:58;;;;;;;84.90;45.85;;;;;;;;;;5067712;28;20070;-70
2022/10/21 00:19:24;;;;;;;101.25;44.38;;;;;;;;;;5066054;28;20016;-71
2022/10/21 00:21:50;;;;;;;91.60;45.78;;;;;;;;;;5069237;28;20036;-71
2022/10/21 00:24:16;;;;;;;84.13;44.15;;;;;;;;;;5070906;28;20085;-71
2022/10/21 00:26:42;;;;;;;91.25;45.55;;;;;;;;;;5066781;28;20392;-70
2022/10/21 00:29:08;;;;;;;84.97;44.20;;;;;;;;;;5068295;28;20507;-71
2022/10/21 00:31:34;;;;;;;92.57;45.50;;;;;;;;;;5067430;28;20037;-70
2022/10/21 00:34:00;;;;;;;87.32;44.53;;;;;;;;;;5050881;28;20025;-72
2022/10/21 00:36:26;;;;;;;86.07;44.85;;;;;;;;;;5068771;28;20040;-72
2022/10/21 00:38:52;;;;;;;83.10;45.55;;;;;;;;;;5067500;28;20039;-70
2022/10/21 00:41:19;;;;;;;92.50;46.40;;;;;;;;;;5065630;28;20039;-70
2022/10/21 00:44:01;;;;;;;82.18;43.28;;;;;;;;;;5048180;28;20044;-71
2022/10/21 00:46:36;;;;;;;90.60;44.85;;;;;;;;;;5045732;28;20071;-71
2022/10/21 00:49:06;;;;;;;84.10;43.25;;;;;;;;;;5046757;28;20043;-71
2022/10/21 00:51:32;;;;;;;77.40;41.40;;;;;;;;;;5050084;28;20041;-70
2022/10/21 00:53:58;;;;;;;86.97;44.13;;;;;;;;;;5046331;28;20051;-70
2022/10/21 00:56:26;;;;;;;86.20;43.28;;;;;;;;;;5047388;28;20071;-70
2022/10/21 00:58:54;;;;;;;87.72;43.70;;;;;;;;;;5046997;28;20025;-70
2022/10/21 01:01:20;;;;;;;75.25;41.60;;;;;;;;;;5047530;28;20025;-70
2022/10/21 01:03:46;;;;;;;83.88;42.83;;;;;;;;;;5049390;28;20044;-71
2022/10/21 01:06:13;;;;;;;75.45;41.83;;;;;;;;;;5048601;28;20040;-71
2022/10/21 01:08:39;;;;;;;72.85;38.75;;;;;;;;;;5046722;28;20044;-71
2022/10/21 01:11:09;;;;;;;79.10;40.50;;;;;;;;;;5049887;28;20056;-71
2022/10/21 01:13:50;;;;;;;75.38;37.85;;;;;;;;;;5047612;28;20025;-71
2022/10/21 01:16:20;;;;;;;72.50;36.13;;;;;;;;;;5048611;28;20491;-71
2022/10/21 01:18:58;;;;;;;75.90;35.75;;;;;;;;;;5046426;28;20033;-71
2022/10/21 01:21:46;;;;;;;65.35;33.08;;;;;;;;;;5048216;28;20045;-71
2022/10/21 01:24:31;;;;;;;64.60;30.95;;;;;;;;;;5047795;28;20025;-71
2022/10/21 01:27:06;;;;;;;61.05;31.98;;;;;;;;;;5045035;28;20036;-71
2022/10/21 01:29:32;;;;;;;60.20;31.85;;;;;;;;;;5046196;28;20035;-71
2022/10/21 01:32:04;;;;;;;64.68;32.33;;;;;;;;;;5027935;28;20032;-71
2022/10/21 01:34:42;;;;;;;68.07;31.77;;;;;;;;;;5047013;28;20025;-71
2022/10/21 01:37:12;;;;;;;67.55;32.47;;;;;;;;;;5040883;28;20463;-72
2022/10/21 01:39:40;;;;;;;67.43;33.03;;;;;;;;;;5046922;28;20185;-72
2022/10/21 01:42:29;;;;;;;68.43;33.58;;;;;;;;;;5048211;28;20116;-73
2022/10/21 01:45:01;;;;;;;65.05;32.50;;;;;;;;;;5049109;28;20035;-72
2022/10/21 01:47:50;;;;;;;68.88;34.97;;;;;;;;;;5049063;28;20263;-71
2022/10/21 01:50:20;;;;;;;62.40;32.38;;;;;;;;;;5036394;28;20040;-72
2022/10/21 01:52:49;;;;;;;76.78;33.15;;;;;;;;;;5048592;28;20028;-71
2022/10/21 01:55:18;;;;;;;70.25;35.75;;;;;;;;;;5048686;28;20017;-72
2022/10/21 01:57:47;;;;;;;77.63;37.78;;;;;;;;;;5046291;28;20549;-71
2022/10/21 02:00:13;;;;;;;80.20;37.17;;;;;;;;;;5027449;28;20491;-72
2022/10/21 02:02:42;;;;;;;86.03;38.67;;;;;;;;;;5028614;28;20037;-72
2022/10/21 02:05:18;;;;;;;81.25;38.33;;;;;;;;;;5045203;28;20037;-72
2022/10/21 02:07:44;;;;;;;90.93;41.83;;;;;;;;;;5042588;28;20032;-73
2022/10/21 02:10:11;;;;;;;90.07;40.50;;;;;;;;;;5029598;28;20035;-72
2022/10/21 02:12:39;;;;;;;111.05;44.05;;;;;;;;;;5046621;28;20032;-72
2022/10/21 02:15:08;;;;;;;102.80;44.38;;;;;;;;;;5048382;28;20032;-72
2022/10/21 02:17:36;;;;;;;120.97;46.05;;;;;;;;;;5029048;28;20112;-71
2022/10/21 02:20:03;;;;;;;113.45;45.92;;;;;;;;;;5050526;28;20033;-71
2022/10/21 02:22:29;;;;;;;115.53;45.92;;;;;;;;;;5046047;28;20025;-72
2022/10/21 02:24:57;;;;;;;114.55;47.35;;;;;;;;;;5033493;28;20116;-72
2022/10/21 02:27:23;;;;;;;118.95;46.28;;;;;;;;;;5048225;28;20048;-72
2022/10/21 02:29:51;;;;;;;120.18;47.17;;;;;;;;;;5044022;28;20124;-72
2022/10/21 02:32:23;;;;;;;127.43;48.38;;;;;;;;;;5031392;28;20657;-72
2022/10/21 02:35:08;;;;;;;136.50;49.63;;;;;;;;;;5029017;28;20120;-72
2022/10/21 02:37:37;;;;;;;136.32;50.30;;;;;;;;;;5046973;28;20431;-72
2022/10/21 02:40:07;;;;;;;126.82;50.88;;;;;;;;;;5045337;28;20039;-71
2022/10/21 02:42:34;;;;;;;140.60;50.95;;;;;;;;;;5047938;28;20086;-72
2022/10/21 02:45:01;;;;;;;133.93;51.60;;;;;;;;;;5044357;28;20417;-72
2022/10/21 02:47:28;;;;;;;148.70;51.22;;;;;;;;;;5045843;28;20562;-72
2022/10/21 02:49:55;;;;;;;147.25;53.08;;;;;;;;;;5044016;28;20033;-72
2022/10/21 02:52:21;;;;;;;147.10;52.75;;;;;;;;;;5047108;28;20037;-71
2022/10/21 02:54:47;;;;;;;157.63;51.92;;;;;;;;;;5045046;28;20032;-70
2022/10/21 02:57:13;;;;;;;154.52;50.95;;;;;;;;;;5050342;28;20066;-73
2022/10/21 02:59:39;;;;;;;174.35;56.70;;;;;;;;;;5027524;28;20057;-70
2022/10/21 03:02:05;;;;;;;163.57;55.70;;;;;;;;;;5046438;28;20067;-71
2022/10/21 03:04:31;;;;;;;167.27;56.47;;;;;;;;;;5047444;28;20044;-71
2022/10/21 03:06:57;;;;;;;168.98;57.63;;;;;;;;;;5032818;28;20040;-73
2022/10/21 03:09:23;;;;;;;166.75;58.28;;;;;;;;;;5031318;28;20458;-73
2022/10/21 03:11:49;;;;;;;172.20;57.05;;;;;;;;;;5046860;28;20056;-73
2022/10/21 03:14:15;;;;;;;171.52;58.63;;;;;;;;;;5045835;28;20026;-73
2022/10/21 03:16:41;;;;;;;177.82;57.88;;;;;;;;;;5029638;28;20025;-73
2022/10/21 03:19:10;;;;;;;179.40;57.50;;;;;;;;;;5044778;28;20468;-73
2022/10/21 03:21:36;;;;;;;174.60;57.80;;;;;;;;;;5044130;28;20040;-73
2022/10/21 03:24:02;;;;;;;174.48;57.72;;;;;;;;;;5031368;28;20083;-72
2022/10/21 03:26:28;;;;;;;169.18;57.22;;;;;;;;;;5046763;28;20347;-72
2022/10/21 03:28:54;;;;;;;173.98;55.85;;;;;;;;;;5046539;28;20029;-72
2022/10/21 03:31:20;;;;;;;161.18;57.58;;;;;;;;;;5048022;28;20025;-72
2022/10/21 03:33:46;;;;;;;190.38;59.17;;;;;;;;;;5042376;28;20295;-72
2022/10/21 03:36:12;;;;;;;173.88;57.95;;;;;;;;;;5047464;28;20060;-72
2022/10/21 03:38:38;;;;;;;184.25;59.63;;;;;;;;;;5045856;28;20043;-72
2022/10/21 03:41:04;;;;;;;182.40;60.97;;;;;;;;;;5049184;28;20586;-72
2022/10/21 03:43:30;;;;;;;176.00;56.70;;;;;;;;;;5047704;28;20041;-72
2022/10/21 03:45:56;;;;;;;169.60;57.90;;;;;;;;;;5027154;28;20488;-71
2022/10/21 03:48:22;;;;;;;176.63;57.03;;;;;;;;;;5033302;28;20063;-71
2022/10/21 03:50:48;;;;;;;185.30;57.95;;;;;;;;;;5030293;28;20045;-71
2022/10/21 03:53:14;;;;;;;181.20;59.00;;;;;;;;;;5027292;28;20021;-72
2022/10/21 03:55:40;;;;;;;172.82;56.35;;;;;;;;;;5044732;28;20094;-72
2022/10/21 03:58:06;;;;;;;191.38;57.35;;;;;;;;;;5034199;28;20380;-72
2022/10/21 04:00:33;;;;;;;189.18;58.97;;;;;;;;;;5033949;28;20092;-72
2022/10/21 04:02:59;;;;;;;188.02;57.97;;;;;;;;;;5033895;28;20483;-72
2022/10/21 04:05:25;;;;;;;196.80;60.72;;;;;;;;;;5048720;28;20033;-72
2022/10/21 04:07:51;;;;;;;184.98;58.38;;;;;;;;;;5035774;28;20046;-72
2022/10/21 04:10:17;;;;;;;202.30;58.53;;;;;;;;;;5033431;28;20071;-73
2022/10/21 04:12:43;;;;;;;207.23;58.75;;;;;;;;;;5052334;28;20067;-71
2022/10/21 04:15:12;;;;;;;184.40;59.30;;;;;;;;;;5049445;28;20124;-71
2022/10/21 04:17:38;;;;;;;194.00;58.72;;;;;;;;;;5045620;28;20021;-71
2022/10/21 04:20:04;;;;;;;196.70;58.60;;;;;;;;;;5029210;28;20103;-71
2022/10/21 04:22:31;;;;;;;203.10;58.85;;;;;;;;;;5031924;28;20511;-73
2022/10/21 04:24:57;;;;;;;195.57;57.97;;;;;;;;;;5034810;28;20329;-73
2022/10/21 04:27:23;;;;;;;213.45;61.67;;;;;;;;;;5032972;28;20758;-71
2022/10/21 04:29:49;;;;;;;201.77;58.08;;;;;;;;;;5048899;28;20044;-71
2022/10/21 04:32:15;;;;;;;209.00;60.70;;;;;;;;;;5051608;28;20044;-72
2022/10/21 04:34:41;;;;;;;209.88;60.63;;;;;;;;;;5049385;28;20120;-72
2022/10/21 04:37:07;;;;;;;189.88;61.10;;;;;;;;;;5037547;28;20403;-71
2022/10/21 04:39:33;;;;;;;208.18;62.95;;;;;;;;;;5035434;28;20025;-72
2022/10/21 04:41:59;;;;;;;194.95;61.25;;;;;;;;;;5032180;28;20063;-72
2022/10/21 04:44:25;;;;;;;191.23;60.10;;;;;;;;;;5032678;28;20381;-71
2022/10/21 04:46:51;;;;;;;205.55;62.42;;;;;;;;;;5048640;28;20094;-71
2022/10/21 04:49:17;;;;;;;209.10;62.03;;;;;;;;;;5048251;28;20029;-71
2022/10/21 04:51:43;;;;;;;210.48;62.17;;;;;;;;;;5012504;28;20355;-71
2022/10/21 04:54:09;;;;;;;193.93;60.22;;;;;;;;;;5036203;28;20326;-71
2022/10/21 04:56:35;;;;;;;198.48;59.33;;;;;;;;;;5048244;28;20033;-71
2022/10/21 04:59:01;;;;;;;195.57;60.05;;;;;;;;;;5032936;28;20091;-71
2022/10/21 05:01:27;;;;;;;190.43;59.85;;;;;;;;;;5048910;28;20040;-71
2022/10/21 05:03:53;;;;;;;208.32;62.38;;;;;;;;;;5032039;28;20104;-70
2022/10/21 05:06:19;;;;;;;185.68;58.28;;;;;;;;;;5047871;28;20507;-71
2022/10/21 05:08:45;;;;;;;197.80;58.53;;;;;;;;;;5033127;28;20451;-71
2022/10/21 05:11:11;;;;;;;206.68;58.78;;;;;;;;;;5046958;28;20068;-71
2022/10/21 05:13:37;;;;;;;191.00;58.65;;;;;;;;;;5047145;28;20207;-71
2022/10/21 05:16:03;;;;;;;200.18;61.05;;;;;;;;;;5031685;28;20398;-71
2022/10/21 05:18:30;;;;;;;194.80;57.88;;;;;;;;;;5049559;28;20029;-71
2022/10/21 05:20:56;;;;;;;206.80;60.97;;;;;;;;;;5046149;28;20492;-71
2022/10/21 05:23:22;;;;;;;213.63;61.22;;;;;;;;;;5028907;28;20360;-71
2022/10/21 05:25:51;;;;;;;190.75;58.35;;;;;;;;;;5046989;28;20035;-71
2022/10/21 05:28:18;;;;;;;200.90;58.85;;;;;;;;;;5046773;28;20032;-71
2022/10/21 05:30:44;;;;;;;199.00;58.92;;;;;;;;;;5053337;28;20076;-71
2022/10/21 05:33:10;;;;;;;192.40;58.45;;;;;;;;;;5045866;28;20036;-71
2022/10/21 05:35:36;;;;;;;199.48;59.05;;;;;;;;;;5047020;28;20021;-71
2022/10/21 05:38:03;;;;;;;204.02;61.08;;;;;;;;;;5042443;28;20052;-72
2022/10/21 05:40:29;;;;;;;180.68;58.00;;;;;;;;;;5028311;28;20048;-71
2022/10/21 05:42:55;;;;;;;197.98;58.50;;;;;;;;;;5046284;28;20075;-71
2022/10/21 05:45:21;;;;;;;210.45;58.50;;;;;;;;;;5046386;28;20084;-70
2022/10/21 05:47:47;;;;;;;189.98;57.80;;;;;;;;;;5030871;28;20029;-71
2022/10/21 05:50:13;;;;;;;200.02;56.35;;;;;;;;;;5027185;28;20025;-70
2022/10/21 05:52:40;;;;;;;210.60;60.40;;;;;;;;;;5044432;28;20025;-70
2022/10/21 05:55:06;;;;;;;195.80;59.03;;;;;;;;;;5051616;28;20037;-71
2022/10/21 05:57:33;;;;;;;180.43;57.70;;;;;;;;;;5047940;28;20028;-70
2022/10/21 05:59:59;;;;;;;187.23;55.63;;;;;;;;;;5047131;28;20033;-70
2022/10/21 06:02:25;;;;;;;189.25;57.53;;;;;;;;;;5026295;28;20033;-71
2022/10/21 06:04:51;;;;;;;202.35;56.08;;;;;;;;;;5030303;28;20033;-71
2022/10/21 06:07:17;;;;;;;179.32;55.78;;;;;;;;;;5045684;28;20114;-72
2022/10/21 06:09:43;;;;;;;202.43;55.25;;;;;;;;;;5028877;28;20491;-71
2022/10/21 06:12:10;;;;;;;205.18;57.63;;;;;;;;;;5046496;28;20090;-71
2022/10/21 06:14:36;;;;;;;204.93;54.90;;;;;;;;;;5049658;28;20104;-71
2022/10/21 06:17:05;;;;;;;190.63;55.60;;;;;;;;;;5045746;28;20021;-71
2022/10/21 06:19:31;;;;;;;179.27;55.88;;;;;;;;;;5047637;28;20041;-71
2022/10/21 06:21:57;;;;;;;196.45;57.75;;;;;;;;;;5031442;28;20056;-71
2022/10/21 06:24:24;;;;;;;184.43;55.55;;;;;;;;;;5049526;28;20028;-71
2022/10/21 06:26:50;;;;;;;190.95;55.75;;;;;;;;;;5046521;28;20498;-71
2022/10/21 06:29:17;;;;;;;203.57;55.25;;;;;;;;;;5045265;28;20048;-71
2022/10/21 06:31:43;;;;;;;206.50;55.50;;;;;;;;;;5048649;28;20041;-72
2022/10/21 06:34:09;;;;;;;195.02;53.05;;;;;;;;;;5026956;28;20025;-72
2022/10/21 06:36:37;;;;;;;189.15;54.17;;;;;;;;;;5043770;28;21367;-72
2022/10/21 06:39:03;;;;;;;182.77;54.63;;;;;;;;;;5043949;28;20128;-73
2022/10/21 06:41:29;;;;;;;184.20;54.15;;;;;;;;;;5044928;28;20040;-72
2022/10/21 06:43:55;;;;;;;188.70;53.78;;;;;;;;;;5023640;28;20034;-71
2022/10/21 06:46:21;;;;;;;187.48;54.03;;;;;;;;;;5045251;28;20036;-72
2022/10/21 06:48:48;;;;;;;191.15;55.75;;;;;;;;;;5045916;28;20396;-71
2022/10/21 06:51:15;;;;;;;202.52;57.33;;;;;;;;;;5046539;28;20519;-71
2022/10/21 06:53:42;;;;;;;181.77;57.25;;;;;;;;;;5046051;28;20388;-71
2022/10/21 06:56:10;;;;;;;181.18;55.45;;;;;;;;;;5045995;28;20021;-70
2022/10/21 06:58:37;;;;;;;183.23;54.13;;;;;;;;;;5043469;28;20036;-71
2022/10/21 07:01:11;;;;;;;188.13;55.03;;;;;;;;;;5044685;28;20052;-72
2022/10/21 07:03:37;;;;;;;177.00;52.92;;;;;;;;;;5036726;28;20035;-72
2022/10/21 07:06:03;;;;;;;170.23;52.25;;;;;;;;;;5032924;28;20029;-72
2022/10/21 07:08:29;;;;;;;169.20;53.95;;;;;;;;;;5048490;28;20043;-72
2022/10/21 07:10:55;;;;;;;174.90;53.25;;;;;;;;;;5046662;28;20059;-72
2022/10/21 07:13:22;;;;;;;168.02;54.55;;;;;;;;;;5044033;28;20108;-72
2022/10/21 07:15:48;;;;;;;159.07;51.80;;;;;;;;;;5027221;28;20074;-72
2022/10/21 07:18:14;;;;;;;159.73;51.45;;;;;;;;;;5043063;28;20087;-72
2022/10/21 07:20:40;;;;;;;154.93;52.15;;;;;;;;;;5046582;28;20029;-72
2022/10/21 07:23:06;;;;;;;162.13;50.38;;;;;;;;;;5046911;28;20149;-72
2022/10/21 07:25:32;;;;;;;152.10;49.90;;;;;;;;;;5057083;28;20047;-73
2022/10/21 07:27:58;;;;;;;165.43;51.22;;;;;;;;;;5013716;28;20312;-73
2022/10/21 07:30:24;;;;;;;157.63;47.95;;;;;;;;;;5042189;28;20120;-73
2022/10/21 07:32:50;;;;;;;128.90;44.58;;;;;;;;;;5063376;28;20456;-72
2022/10/21 07:35:16;;;;;;;127.53;44.78;;;;;;;;;;5050617;28;20523;-73
2022/10/21 07:37:42;;;;;;;140.02;47.38;;;;;;;;;;5052134;28;20048;-73
2022/10/21 07:40:11;;;;;;;137.63;46.88;;;;;;;;;;5064519;28;20027;-74
2022/10/21 07:42:37;;;;;;;138.25;45.33;;;;;;;;;;5052560;28;20045;-73
2022/10/21 07:45:03;;;;;;;138.25;46.17;;;;;;;;;;5056721;28;20625;-73
2022/10/21 07:47:29;;;;;;;133.95;46.10;;;;;;;;;;5035619;28;20025;-73
2022/10/21 07:49:56;;;;;;;137.18;45.65;;;;;;;;;;5034118;28;20083;-73
2022/10/21 07:52:22;;;;;;;129.20;43.97;;;;;;;;;;5052804;28;20084;-73
2022/10/21 07:54:48;;;;;;;105.78;42.13;;;;;;;;;;5054908;28;20041;-71
2022/10/21 07:57:14;;;;;;;131.95;43.92;;;;;;;;;;5056363;28;20025;-71
2022/10/21 07:59:40;;;;;;;103.97;39.95;;;;;;;;;;5070808;28;20479;-71
2022/10/21 08:02:06;;;;;;;100.22;39.75;;;;;;;;;;5017932;28;20041;-71
2022/10/21 08:04:32;;;;;;;108.25;39.85;;;;;;;;;;5034472;28;20036;-72
2022/10/21 08:06:58;;;;;;;103.10;38.33;;;;;;;;;;5051327;28;20424;-72
2022/10/21 08:09:25;;;;;;;93.88;38.83;;;;;;;;;;5061818;28;20078;-72
2022/10/21 08:11:51;;;;;;;90.07;37.25;;;;;;;;;;5059385;28;20051;-72
2022/10/21 08:14:17;;;;;;;95.95;36.30;;;;;;;;;;5052262;28;20056;-72
2022/10/21 08:16:43;;;;;;;91.38;38.30;;;;;;;;;;5052698;28;20154;-72
2022/10/21 08:19:22;;;;;;;79.00;35.03;;;;;;;;;;5023200;28;20512;-72
2022/10/21 08:21:48;;;;;;;80.45;35.60;;;;;;;;;;5048794;28;20048;-72
2022/10/21 08:24:14;;;;;;;85.55;35.67;;;;;;;;;;5046520;28;20751;-73
2022/10/21 08:26:40;;;;;;;85.40;36.05;;;;;;;;;;5015373;28;20041;-72
2022/10/21 08:29:06;;;;;;;79.28;37.33;;;;;;;;;;5049506;28;20584;-73
2022/10/21 08:31:32;;;;;;;83.07;35.90;;;;;;;;;;5051410;28;20102;-72
2022/10/21 08:33:58;;;;;;;81.25;35.63;;;;;;;;;;5039757;28;20060;-72
2022/10/21 08:36:25;;;;;;;76.15;35.05;;;;;;;;;;5051398;28;20036;-73
2022/10/21 08:38:52;;;;;;;84.35;37.50;;;;;;;;;;5051167;28;20028;-73
2022/10/21 08:41:26;;;;;;;90.32;37.58;;;;;;;;;;5051446;28;20065;-73
2022/10/21 08:43:53;;;;;;;95.53;37.65;;;;;;;;;;5067436;28;20043;-73
2022/10/21 08:46:24;;;;;;;91.10;36.88;;;;;;;;;;5071502;28;20043;-72
2022/10/21 08:49:06;;;;;;;86.07;36.90;;;;;;;;;;5071656;28;20475;-72
2022/10/21 08:51:35;;;;;;;87.50;39.72;;;;;;;;;;5071340;28;20087;-72
2022/10/21 08:54:04;;;;;;;75.35;35.90;;;;;;;;;;5051101;28;20048;-72
2022/10/21 08:56:31;;;;;;;72.55;35.33;;;;;;;;;;5051140;28;20055;-73
2022/10/21 08:58:57;;;;;;;74.15;35.45;;;;;;;;;;5055364;28;20340;-73
2022/10/21 09:01:29;;;;;;;79.38;35.42;;;;;;;;;;5050500;28;20124;-73
2022/10/21 09:03:58;;;;;;;78.25;34.33;;;;;;;;;;5070903;28;20024;-72
2022/10/21 09:06:33;;;;;;;83.82;33.83;;;;;;;;;;5071175;28;20029;-73
2022/10/21 09:09:15;;;;;;;82.45;33.90;;;;;;;;;;5069573;28;20119;-73
2022/10/21 09:11:50;;;;;;;66.15;32.30;;;;;;;;;;5053213;28;20178;-73
2022/10/21 09:14:31;;;;;;;63.08;31.60;;;;;;;;;;5053125;28;20020;-73
2022/10/21 09:16:57;;;;;;;61.78;30.80;;;;;;;;;;5068407;28;20029;-73
2022/10/21 09:19:33;;;;;;;60.95;29.90;;;;;;;;;;5055160;28;20502;-72
2022/10/21 09:22:05;;;;;;;56.92;30.27;;;;;;;;;;5065186;28;20032;-73
2022/10/21 09:24:34;;;;;;;55.17;28.30;;;;;;;;;;5041984;28;20529;-73
2022/10/21 09:27:01;;;;;;;51.40;27.45;;;;;;;;;;5045491;28;20029;-73
2022/10/21 09:29:53;;;;;;;48.40;26.95;;;;;;;;;;5045037;28;20032;-73
2022/10/21 09:32:24;;;;;;;51.30;25.45;;;;;;;;;;5037929;28;20142;-73
2022/10/21 09:34:54;;;;;;;42.80;23.50;;;;;;;;;;5040638;28;20036;-72
2022/10/21 09:37:26;;;;;;;42.60;23.48;;;;;;;;;;5045688;28;20029;-73
2022/10/21 09:40:19;;;;;;;37.15;22.48;;;;;;;;;;5046260;28;20029;-73
2022/10/21 09:42:45;;;;;;;41.90;22.33;;;;;;;;;;5053936;28;20040;-73
2022/10/21 09:45:17;;;;;;;35.83;20.50;;;;;;;;;;5066004;28;20039;-73
2022/10/21 09:47:44;;;;;;;34.75;20.33;;;;;;;;;;5061872;28;20115;-72
2022/10/21 09:50:14;;;;;;;35.58;20.02;;;;;;;;;;5062809;28;20031;-71
2022/10/21 09:52:44;;;;;;;37.35;18.67;;;;;;;;;;5060589;28;20044;-71
2022/10/21 09:55:15;;;;;;;32.47;15.93;;;;;;;;;;5062839;28;20055;-71
2022/10/21 09:58:03;;;;;;;27.27;14.40;;;;;;;;;;5063730;28;20016;-71
2022/10/21 10:00:46;;;;;;;21.80;13.23;;;;;;;;;;5062309;28;20086;-71
2022/10/21 10:03:12;;;;;;;29.05;13.43;;;;;;;;;;5060666;28;20028;-72
2022/10/21 10:05:45;;;;;;;20.13;12.40;;;;;;;;;;5063477;28;20504;-71
2022/10/21 10:08:30;;;;;;;26.15;12.98;;;;;;;;;;5062801;28;20016;-71
2022/10/21 10:11:08;;;;;;;22.65;11.82;;;;;;;;;;5063841;28;20028;-71
2022/10/21 10:13:35;;;;;;;23.98;10.45;;;;;;;;;;5063871;28;20047;-70
2022/10/21 10:16:21;;;;;;;21.40;10.10;;;;;;;;;;5068751;28;20112;-74
2022/10/21 10:18:48;;;;;;;19.65;9.75;;;;;;;;;;5065853;28;20055;-71
2022/10/21 10:21:15;;;;;;;25.77;9.98;;;;;;;;;;5066131;28;20024;-71
2022/10/21 10:23:42;;;;;;;15.85;8.82;;;;;;;;;;5065273;28;20074;-71
2022/10/21 10:26:08;;;;;;;12.90;8.13;;;;;;;;;;5066316;28;20120;-71
2022/10/21 10:28:34;;;;;;;15.63;8.10;;;;;;;;;;5064667;28;20040;-71
2022/10/21 10:31:01;;;;;;;18.55;8.02;;;;;;;;;;5064393;28;20116;-71
2022/10/21 10:33:29;;;;;;;15.73;7.50;;;;;;;;;;5067096;28;20039;-71
2022/10/21 10:35:56;;;;;;;14.23;6.65;;;;;;;;;;5064649;28;20528;-71
2022/10/21 10:38:35;;;;;;;14.00;6.82;;;;;;;;;;5065128;28;20024;-70
2022/10/21 10:41:08;;;;;;;12.85;6.30;;;;;;;;;;5067006;28;20047;-71
2022/10/21 10:43:36;;;;;;;17.58;6.82;;;;;;;;;;5047365;28;20055;-71
2022/10/21 10:46:04;;;;;;;18.38;7.53;;;;;;;;;;5026067;28;20040;-70
2022/10/21 10:48:41;;;;;;;14.80;6.93;;;;;;;;;;5048056;28;20029;-71
2022/10/21 10:51:25;;;;;;;12.40;5.75;;;;;;;;;;5032008;28;20068;-69
2022/10/21 10:54:16;;;;;;;12.02;5.35;;;;;;;;;;5047605;28;20028;-68
2022/10/21 10:56:42;;;;;;;;;;;;;;;;;;5047773;28;20237;-69
2022/10/21 10:59:20;;;;;;;13.05;5.68;;;;;;;;;;5046952;28;20398;-69
2022/10/21 11:02:05;;;;;;;10.20;5.65;;;;;;;;;;5048029;28;20029;-69
2022/10/21 11:04:37;;;;;;;13.18;5.47;;;;;;;;;;5050394;28;20029;-68
2022/10/21 11:07:23;;;;;;;13.88;4.63;;;;;;;;;;5029004;28;20029;-68
2022/10/21 11:09:52;;;;;;;14.38;5.10;;;;;;;;;;5043572;28;20037;-69
2022/10/21 11:12:25;;;;;;;10.05;5.20;;;;;;;;;;5050677;28;20033;-69
2022/10/21 11:14:52;;;;;;;11.43;4.35;;;;;;;;;;5046683;28;20025;-69
2022/10/21 11:17:19;;;;;;;13.40;4.55;;;;;;;;;;5048052;28;20037;-68
2022/10/21 11:19:51;;;;;;;9.80;4.20;;;;;;;;;;5044420;28;20021;-69
2022/10/21 11:22:36;;;;;;;9.00;4.10;;;;;;;;;;5032808;28;20332;-69
2022/10/21 11:25:11;;;;;;;11.48;4.40;;;;;;;;;;5052953;28;20045;-69
2022/10/21 11:27:53;;;;;;;10.57;4.28;;;;;;;;;;5047966;28;20029;-69
2022/10/21 11:30:21;;;;;;;14.13;3.92;;;;;;;;;;5029198;28;20140;-69
2022/10/21 11:33:02;;;;;;;9.98;4.18;;;;;;;;;;5045429;28;20292;-70
2022/10/21 11:35:33;;;;;;;6.72;3.90;;;;;;;;;;5047180;28;20483;-69
2022/10/21 11:38:08;;;;;;;12.38;3.88;;;;;;;;;;5047155;28;20025;-69
2022/10/21 11:40:34;;;;;;;8.52;3.50;;;;;;;;;;5045940;28;20025;-69
2022/10/21 11:43:11;;;;;;;8.60;3.97;;;;;;;;;;5045038;28;20057;-69
2022/10/21 11:45:43;;;;;;;10.20;3.95;;;;;;;;;;5046078;28;20052;-69
2022/10/21 11:48:12;;;;;;;9.32;4.05;;;;;;;;;;5047829;28;20357;-69
2022/10/21 11:50:43;;;;;;;12.80;3.75;;;;;;;;;;5046295;28;20527;-69
2022/10/21 11:53:14;;;;;;;9.70;3.78;;;;;;;;;;5036038;28;20104;-69
2022/10/21 11:55:40;;;;;;;;;;;;;;;;;;5046785;28;20036;-69
2022/10/21 11:58:15;;;;;;;7.88;3.55;;;;;;;;;;5047068;28;19909;-68
2022/10/21 12:00:45;;;;;;;11.88;4.43;;;;;;;;;;5033248;28;20090;-68
2022/10/21 12:03:26;;;;;;;15.02;4.18;;;;;;;;;;5046492;28;20037;-69
2022/10/21 12:05:58;;;;;;;7.43;3.88;;;;;;;;;;5039880;28;20387;-68
2022/10/21 12:08:27;;;;;;;9.98;3.85;;;;;;;;;;5049396;28;20056;-68
2022/10/21 12:11:02;;;;;;;11.95;4.22;;;;;;;;;;5026304;28;20044;-68
2022/10/21 12:13:30;;;;;;;9.40;4.38;;;;;;;;;;5043350;28;20087;-69
2022/10/21 12:16:01;;;;;;;10.63;4.15;;;;;;;;;;5046186;28;20161;-68
2022/10/21 12:18:27;;;;;;;;;;;;;;;;;;5048966;28;20129;-68
2022/10/21 12:20:54;;;;;;;10.68;4.85;;;;;;;;;;5051060;28;19999;-68
2022/10/21 12:23:22;;;;;;;8.50;4.60;;;;;;;;;;5050578;28;20056;-68
2022/10/21 12:26:00;;;;;;;12.23;5.38;;;;;;;;;;5033585;28;20349;-68
2022/10/21 12:28:48;;;;;;;11.18;4.53;;;;;;;;;;5054624;28;20431;-68
2022/10/21 12:31:17;;;;;;;10.70;4.50;;;;;;;;;;5054253;28;20070;-68
2022/10/21 12:33:44;;;;;;;8.70;4.90;;;;;;;;;;5049487;28;20371;-68
2022/10/21 12:36:17;;;;;;;12.45;5.53;;;;;;;;;;5030591;28;20075;-67
2022/10/21 12:38:50;;;;;;;11.77;4.80;;;;;;;;;;5058195;28;20550;-68
2022/10/21 12:41:28;;;;;;;10.77;5.13;;;;;;;;;;5055591;28;20052;-68
2022/10/21 12:44:00;;;;;;;14.75;4.57;;;;;;;;;;5050945;28;20504;-68
2022/10/21 12:46:37;;;;;;;10.70;4.68;;;;;;;;;;5050713;28;20029;-68
2022/10/21 12:49:19;;;;;;;12.52;5.28;;;;;;;;;;5031972;28;20116;-68
2022/10/21 12:51:56;;;;;;;9.70;4.93;;;;;;;;;;5047107;28;20033;-68
2022/10/21 12:54:25;;;;;;;9.63;4.80;;;;;;;;;;5049817;28;20047;-67
2022/10/21 12:56:59;;;;;;;12.50;5.25;;;;;;;;;;5048964;28;20471;-68
2022/10/21 12:59:36;;;;;;;14.88;4.82;;;;;;;;;;5048784;28;20033;-69
2022/10/21 13:02:05;;;;;;;10.73;5.10;;;;;;;;;;5050852;28;20035;-67
2022/10/21 13:04:31;;;;;;;9.82;4.80;;;;;;;;;;5048483;28;20075;-68
2022/10/21 13:07:00;;;;;;;12.50;4.30;;;;;;;;;;5048271;28;20052;-70
2022/10/21 13:09:31;;;;;;;14.13;5.13;;;;;;;;;;5038656;28;20029;-68
2022/10/21 13:12:09;;;;;;;10.82;4.68;;;;;;;;;;5049107;28;20539;-68
2022/10/21 13:14:43;;;;;;;13.50;4.28;;;;;;;;;;5048119;28;20041;-68
2022/10/21 13:17:21;;;;;;;13.18;5.00;;;;;;;;;;5049322;28;20033;-68
2022/10/21 13:19:48;;;;;;;11.95;4.75;;;;;;;;;;5052266;28;20024;-69
2022/10/21 13:22:33;;;;;;;11.27;5.25;;;;;;;;;;5050626;28;20525;-69
2022/10/21 13:25:19;;;;;;;11.93;4.78;;;;;;;;;;5049539;28;20573;-68
2022/10/21 13:27:50;;;;;;;8.07;4.05;;;;;;;;;;5035507;28;20372;-68
2022/10/21 13:30:27;;;;;;;13.68;3.97;;;;;;;;;;5047716;28;20118;-68
2022/10/21 13:33:01;;;;;;;8.25;4.00;;;;;;;;;;5049395;28;20033;-68
2022/10/21 13:35:44;;;;;;;9.35;3.92;;;;;;;;;;5047621;28;20078;-68
2022/10/21 13:38:19;;;;;;;12.13;3.90;;;;;;;;;;5048337;28;20454;-68
2022/10/21 13:40:49;;;;;;;9.63;4.10;;;;;;;;;;5066970;28;20017;-68
2022/10/21 13:43:18;;;;;;;15.38;4.03;;;;;;;;;;5059250;28;20053;-68
2022/10/21 13:45:49;;;;;;;12.35;3.90;;;;;;;;;;5048791;28;20032;-67
2022/10/21 13:48:15;;;;;;;8.50;4.13;;;;;;;;;;5033255;28;20044;-68
2022/10/21 13:50:43;;;;;;;7.13;3.40;;;;;;;;;;5052437;28;20486;-68
2022/10/21 13:53:18;;;;;;;11.27;3.35;;;;;;;;;;5043053;28;20496;-68
2022/10/21 13:55:54;;;;;;;8.68;3.40;;;;;;;;;;5048354;28;20017;-68
2022/10/21 13:58:20;;;;;;;9.63;3.53;;;;;;;;;;5030156;28;20032;-68
2022/10/21 14:00:46;;;;;;;8.38;3.58;;;;;;;;;;5053809;28;20070;-68
2022/10/21 14:03:16;;;;;;;8.38;3.65;;;;;;;;;;5055020;28;20021;-68
2022/10/21 14:05:50;;;;;;;10.57;3.58;;;;;;;;;;5048216;28;20024;-68
2022/10/21 14:08:25;;;;;;;8.90;3.83;;;;;;;;;;5028988;28;20457;-68
2022/10/21 14:10:52;;;;;;;9.85;3.00;;;;;;;;;;5049124;28;20033;-68
2022/10/21 14:13:22;;;;;;;6.70;2.83;;;;;;;;;;5049690;28;20647;-68
2022/10/21 14:15:49;;;;;;;7.93;3.00;;;;;;;;;;5043152;28;20017;-68
2022/10/21 14:18:35;;;;;;;8.98;3.10;;;;;;;;;;5046303;28;20059;-68
2022/10/21 14:21:01;;;;;;;7.25;2.90;;;;;;;;;;5041731;28;20060;-67
2022/10/21 14:23:28;;;;;;;8.15;2.78;;;;;;;;;;5050091;28;20040;-68
2022/10/21 14:25:57;;;;;;;7.65;2.22;;;;;;;;;;5031200;28;20063;-68
2022/10/21 14:28:23;;;;;;;10.48;2.00;;;;;;;;;;5052326;28;20553;-68
2022/10/21 14:30:49;;;;;;;5.68;1.85;;;;;;;;;;5046344;28;20025;-68
2022/10/21 14:33:20;;;;;;;11.00;2.22;;;;;;;;;;5054784;28;20016;-68